Pagina principale
METAR-TAF:

METAR-TAF

Aeroporti :

Nizza, Francia

Aeroporto di Nizza Costa Azzurra

latitudine: 43-39N, longitudine: 007-12E, altezza: 4 m

Osservazione

Il bollettino è stato emesso 39 minuti fa, alle 11:30 UTC
Vento 2 kt da direzioni variabili
Temperature 16°C
Umidità 48%
Pressione 1013 hPa
Visibilità 10 km o più
nessuna nube inferiore a 1500 m e nessun cumulonembo

METAR: LFMN 191130Z VRB02KT CAVOK 16/05 Q1013 NOSIG

Ora: 13:09 (12:09 UTC)

Previsione

Il bollettino è stato emesso 4 ore e 9 minuti fa, alle 08:00 UTC
Previsione valida dal 19 alle 09 UTC al 20 alle 15 UTC
Vento 6 kt da sud
Visibilità 10 km o più
nessuna nube inferiore a 1500 m e nessun cumulonembo
Evoluzione graduale
dal 19 alle 17 UTC al 19 alle 19 UTC
Vento 10 kt da nord/nord-ovest
A partire da 20 alle 0800 UTC
Vento 10 kt da est
Visibilità 10 km o più
Nuvoloso ad un'altezza di 900 ft

TAF: LFMN 190800Z 1909/2015 17006KT CAVOK BECMG 1917/1919 34010KT FM200800 09010KT 9999 BKN009

Osservazioni e previsioni meteorologiche di più di 4000 aeroporti (messaggi METAR e TAF).

Le stazioni disponibili sono rappresentate dai dischi gialli e rossi sulla carta.

Puntare il mouse per vedere il nome della stazione.

Clicca sopra per visualizzare le osservazioni e previsioni meteorologiche.

Per cambiare la mappa : fare clic sui pulsanti verdi con una croce nera per ingrandire, il pulsante verde con un trattino per diminuire, o sulla freccia verde per le mappe adiacenti.


METAR-TAF: